sensor_id;sensor_type;location;lat;lon;timestamp;pressure;altitude;pressure_sealevel;temperature;humidity
54554;BME280;40450;55.848;-3.572;2023-05-08T00:01:37;99333.49;;;15.63;74.09
54554;BME280;40450;55.848;-3.572;2023-05-08T00:04:08;99324.84;;;14.69;75.80
54554;BME280;40450;55.848;-3.572;2023-05-08T00:06:38;99324.52;;;14.17;76.58
54554;BME280;40450;55.848;-3.572;2023-05-08T00:09:08;99325.10;;;13.85;77.70
54554;BME280;40450;55.848;-3.572;2023-05-08T00:11:39;99325.47;;;13.49;79.09
54554;BME280;40450;55.848;-3.572;2023-05-08T00:14:09;99321.45;;;14.45;76.49
54554;BME280;40450;55.848;-3.572;2023-05-08T00:16:39;99321.63;;;14.63;76.25
54554;BME280;40450;55.848;-3.572;2023-05-08T00:19:10;99331.50;;;12.14;82.77
54554;BME280;40450;55.848;-3.572;2023-05-08T00:21:40;99326.34;;;12.02;83.68
54554;BME280;40450;55.848;-3.572;2023-05-08T00:24:11;99331.81;;;11.62;84.63
54554;BME280;40450;55.848;-3.572;2023-05-08T00:26:41;99320.79;;;10.61;88.29
54554;BME280;40450;55.848;-3.572;2023-05-08T00:29:11;99313.78;;;10.77;88.23
54554;BME280;40450;55.848;-3.572;2023-05-08T00:31:41;99310.24;;;9.70;91.75
54554;BME280;40450;55.848;-3.572;2023-05-08T00:34:12;99304.45;;;10.35;89.73
54554;BME280;40450;55.848;-3.572;2023-05-08T00:36:42;99305.30;;;10.57;89.34
54554;BME280;40450;55.848;-3.572;2023-05-08T00:39:13;99300.03;;;10.99;88.38
54554;BME280;40450;55.848;-3.572;2023-05-08T00:41:43;99290.00;;;11.77;86.76
54554;BME280;40450;55.848;-3.572;2023-05-08T00:44:13;99285.89;;;12.90;83.78
54554;BME280;40450;55.848;-3.572;2023-05-08T00:46:44;99288.07;;;12.36;84.00
54554;BME280;40450;55.848;-3.572;2023-05-08T00:49:14;99288.71;;;11.51;85.90
54554;BME280;40450;55.848;-3.572;2023-05-08T00:51:46;99286.95;;;10.82;88.20
54554;BME280;40450;55.848;-3.572;2023-05-08T00:54:15;99282.13;;;10.76;88.48
54554;BME280;40450;55.848;-3.572;2023-05-08T00:56:46;99289.58;;;11.00;87.63
54554;BME280;40450;55.848;-3.572;2023-05-08T00:59:17;99291.05;;;10.08;90.03
54554;BME280;40450;55.848;-3.572;2023-05-08T01:01:47;99280.54;;;10.29;90.19
54554;BME280;40450;55.848;-3.572;2023-05-08T01:04:20;99274.02;;;9.45;91.92
54554;BME280;40450;55.848;-3.572;2023-05-08T01:06:47;99273.18;;;8.71;93.91
54554;BME280;40450;55.848;-3.572;2023-05-08T01:09:17;99269.62;;;9.33;92.92
54554;BME280;40450;55.848;-3.572;2023-05-08T01:11:53;99271.86;;;8.60;94.58
54554;BME280;40450;55.848;-3.572;2023-05-08T01:14:20;99271.17;;;8.56;95.03
54554;BME280;40450;55.848;-3.572;2023-05-08T01:16:57;99274.26;;;8.81;94.82
54554;BME280;40450;55.848;-3.572;2023-05-08T01:19:36;99277.32;;;9.10;94.46
54554;BME280;40450;55.848;-3.572;2023-05-08T01:21:55;99271.39;;;8.97;94.96
54554;BME280;40450;55.848;-3.572;2023-05-08T01:27:00;99265.10;;;9.70;93.11
54554;BME280;40450;55.848;-3.572;2023-05-08T01:32:04;99258.13;;;10.03;91.77
54554;BME280;40450;55.848;-3.572;2023-05-08T01:34:24;99255.50;;;10.24;91.20
54554;BME280;40450;55.848;-3.572;2023-05-08T01:36:57;99257.69;;;11.07;89.48
54554;BME280;40450;55.848;-3.572;2023-05-08T01:39:30;99247.74;;;11.34;89.07
54554;BME280;40450;55.848;-3.572;2023-05-08T01:41:57;99242.17;;;12.06;86.45
54554;BME280;40450;55.848;-3.572;2023-05-08T01:44:27;99230.03;;;11.99;85.47
54554;BME280;40450;55.848;-3.572;2023-05-08T01:46:54;99227.72;;;11.41;86.94
54554;BME280;40450;55.848;-3.572;2023-05-08T01:49:27;99226.26;;;11.11;87.62
54554;BME280;40450;55.848;-3.572;2023-05-08T01:51:58;99216.78;;;11.14;88.38
54554;BME280;40450;55.848;-3.572;2023-05-08T01:54:27;99213.05;;;9.89;92.02
54554;BME280;40450;55.848;-3.572;2023-05-08T01:56:57;99215.30;;;9.95;92.02
54554;BME280;40450;55.848;-3.572;2023-05-08T01:59:26;99215.11;;;10.07;92.28
54554;BME280;40450;55.848;-3.572;2023-05-08T02:01:57;99217.42;;;9.98;92.53
54554;BME280;40450;55.848;-3.572;2023-05-08T02:04:27;99213.47;;;10.05;92.07
54554;BME280;40450;55.848;-3.572;2023-05-08T02:06:57;99208.37;;;9.67;93.02
54554;BME280;40450;55.848;-3.572;2023-05-08T02:09:27;99206.68;;;9.46;93.72
54554;BME280;40450;55.848;-3.572;2023-05-08T02:11:58;99204.67;;;8.85;95.45
54554;BME280;40450;55.848;-3.572;2023-05-08T02:14:28;99209.48;;;8.64;96.20
54554;BME280;40450;55.848;-3.572;2023-05-08T02:16:59;99212.83;;;8.17;97.41
54554;BME280;40450;55.848;-3.572;2023-05-08T02:19:29;99206.81;;;8.72;96.53
54554;BME280;40450;55.848;-3.572;2023-05-08T02:21:58;99214.46;;;9.53;94.88
54554;BME280;40450;55.848;-3.572;2023-05-08T02:24:29;99207.02;;;8.98;95.97
54554;BME280;40450;55.848;-3.572;2023-05-08T02:26:59;99204.38;;;9.23;95.55
54554;BME280;40450;55.848;-3.572;2023-05-08T02:29:29;99196.32;;;9.40;95.37
54554;BME280;40450;55.848;-3.572;2023-05-08T02:32:00;99190.26;;;9.31;95.43
54554;BME280;40450;55.848;-3.572;2023-05-08T02:34:30;99183.10;;;8.47;97.03
54554;BME280;40450;55.848;-3.572;2023-05-08T02:37:01;99185.35;;;7.86;98.09
54554;BME280;40450;55.848;-3.572;2023-05-08T02:39:31;99185.49;;;7.93;98.62
54554;BME280;40450;55.848;-3.572;2023-05-08T02:42:01;99184.80;;;8.16;98.35
54554;BME280;40450;55.848;-3.572;2023-05-08T02:44:31;99178.44;;;8.37;97.97
54554;BME280;40450;55.848;-3.572;2023-05-08T02:47:10;99176.62;;;8.31;98.03
54554;BME280;40450;55.848;-3.572;2023-05-08T02:49:42;99175.84;;;8.06;98.70
54554;BME280;40450;55.848;-3.572;2023-05-08T02:52:06;99178.41;;;8.24;98.37
54554;BME280;40450;55.848;-3.572;2023-05-08T02:54:37;99173.37;;;8.21;98.15
54554;BME280;40450;55.848;-3.572;2023-05-08T02:57:09;99164.99;;;7.95;98.59
54554;BME280;40450;55.848;-3.572;2023-05-08T02:59:37;99160.33;;;8.07;98.23
54554;BME280;40450;55.848;-3.572;2023-05-08T03:02:08;99154.88;;;8.80;97.36
54554;BME280;40450;55.848;-3.572;2023-05-08T03:04:37;99156.01;;;8.06;98.34
54554;BME280;40450;55.848;-3.572;2023-05-08T03:07:05;99151.72;;;8.49;97.95
54554;BME280;40450;55.848;-3.572;2023-05-08T03:09:40;99152.88;;;8.78;97.06
54554;BME280;40450;55.848;-3.572;2023-05-08T03:12:10;99146.58;;;8.97;96.88
54554;BME280;40450;55.848;-3.572;2023-05-08T03:14:40;99148.54;;;8.85;96.76
54554;BME280;40450;55.848;-3.572;2023-05-08T03:17:08;99148.72;;;8.95;96.62
54554;BME280;40450;55.848;-3.572;2023-05-08T03:19:38;99153.47;;;8.59;97.37
54554;BME280;40450;55.848;-3.572;2023-05-08T03:22:08;99139.46;;;9.19;96.51
54554;BME280;40450;55.848;-3.572;2023-05-08T03:24:37;99131.84;;;9.19;96.37
54554;BME280;40450;55.848;-3.572;2023-05-08T03:27:07;99130.30;;;9.19;96.68
54554;BME280;40450;55.848;-3.572;2023-05-08T03:29:38;99140.72;;;9.58;95.76
54554;BME280;40450;55.848;-3.572;2023-05-08T03:32:08;99138.54;;;8.61;97.76
54554;BME280;40450;55.848;-3.572;2023-05-08T03:34:38;99119.62;;;9.01;96.88
54554;BME280;40450;55.848;-3.572;2023-05-08T03:37:09;99130.66;;;8.22;98.43
54554;BME280;40450;55.848;-3.572;2023-05-08T03:39:39;99131.59;;;8.60;97.67
54554;BME280;40450;55.848;-3.572;2023-05-08T03:42:10;99126.93;;;8.81;96.98
54554;BME280;40450;55.848;-3.572;2023-05-08T03:44:40;99126.50;;;8.35;97.58
54554;BME280;40450;55.848;-3.572;2023-05-08T03:47:10;99125.55;;;8.09;98.25
54554;BME280;40450;55.848;-3.572;2023-05-08T03:49:40;99127.30;;;8.50;98.02
54554;BME280;40450;55.848;-3.572;2023-05-08T03:52:11;99127.33;;;8.34;97.68
54554;BME280;40450;55.848;-3.572;2023-05-08T03:54:41;99121.07;;;8.05;98.20
54554;BME280;40450;55.848;-3.572;2023-05-08T03:57:11;99126.45;;;8.31;98.04
54554;BME280;40450;55.848;-3.572;2023-05-08T03:59:48;99119.33;;;8.53;97.35
54554;BME280;40450;55.848;-3.572;2023-05-08T04:02:20;99111.85;;;8.86;96.66
54554;BME280;40450;55.848;-3.572;2023-05-08T04:04:44;99105.24;;;9.18;95.79
54554;BME280;40450;55.848;-3.572;2023-05-08T04:07:19;99111.35;;;8.81;96.34
54554;BME280;40450;55.848;-3.572;2023-05-08T04:09:52;99109.89;;;8.39;97.74
54554;BME280;40450;55.848;-3.572;2023-05-08T04:12:17;99104.69;;;9.29;95.49
54554;BME280;40450;55.848;-3.572;2023-05-08T04:14:48;99107.81;;;9.16;96.01
54554;BME280;40450;55.848;-3.572;2023-05-08T04:17:21;99103.58;;;8.26;97.94
54554;BME280;40450;55.848;-3.572;2023-05-08T04:19:46;99088.57;;;8.18;98.25
54554;BME280;40450;55.848;-3.572;2023-05-08T04:22:17;99075.85;;;8.15;98.62
54554;BME280;40450;55.848;-3.572;2023-05-08T04:24:47;99077.30;;;7.62;99.76
54554;BME280;40450;55.848;-3.572;2023-05-08T04:27:16;99062.76;;;8.47;98.52
54554;BME280;40450;55.848;-3.572;2023-05-08T04:29:46;99057.88;;;8.39;98.72
54554;BME280;40450;55.848;-3.572;2023-05-08T04:32:16;99073.43;;;8.37;98.76
54554;BME280;40450;55.848;-3.572;2023-05-08T04:34:47;99073.49;;;8.63;98.14
54554;BME280;40450;55.848;-3.572;2023-05-08T04:37:23;99065.42;;;8.85;97.39
54554;BME280;40450;55.848;-3.572;2023-05-08T04:39:49;99062.95;;;8.71;97.90
54554;BME280;40450;55.848;-3.572;2023-05-08T04:42:18;99063.03;;;8.19;99.05
54554;BME280;40450;55.848;-3.572;2023-05-08T04:44:48;99061.24;;;8.78;98.28
54554;BME280;40450;55.848;-3.572;2023-05-08T04:47:18;99071.46;;;8.21;99.25
54554;BME280;40450;55.848;-3.572;2023-05-08T04:49:48;99065.72;;;8.12;99.54
54554;BME280;40450;55.848;-3.572;2023-05-08T04:52:18;99060.98;;;9.00;97.78
54554;BME280;40450;55.848;-3.572;2023-05-08T04:54:49;99064.96;;;9.45;96.29
54554;BME280;40450;55.848;-3.572;2023-05-08T04:57:19;99074.41;;;9.31;97.01
54554;BME280;40450;55.848;-3.572;2023-05-08T04:59:49;99072.29;;;9.45;96.80
54554;BME280;40450;55.848;-3.572;2023-05-08T05:02:20;99069.46;;;8.78;97.69
54554;BME280;40450;55.848;-3.572;2023-05-08T05:04:51;99065.37;;;9.11;97.11
54554;BME280;40450;55.848;-3.572;2023-05-08T05:07:21;99067.38;;;8.71;97.95
54554;BME280;40450;55.848;-3.572;2023-05-08T05:09:51;99073.08;;;8.68;98.27
54554;BME280;40450;55.848;-3.572;2023-05-08T05:12:22;99065.31;;;8.89;97.87
54554;BME280;40450;55.848;-3.572;2023-05-08T05:14:52;99066.45;;;8.52;98.52
54554;BME280;40450;55.848;-3.572;2023-05-08T05:17:23;99065.60;;;8.04;99.37
54554;BME280;40450;55.848;-3.572;2023-05-08T05:19:53;99062.12;;;7.73;100.00
54554;BME280;40450;55.848;-3.572;2023-05-08T05:22:23;99064.21;;;7.52;100.00
54554;BME280;40450;55.848;-3.572;2023-05-08T05:24:53;99068.88;;;7.38;100.00
54554;BME280;40450;55.848;-3.572;2023-05-08T05:27:23;99064.98;;;8.13;100.00
54554;BME280;40450;55.848;-3.572;2023-05-08T05:29:54;99071.44;;;8.18;99.76
54554;BME280;40450;55.848;-3.572;2023-05-08T05:32:24;99070.81;;;7.64;100.00
54554;BME280;40450;55.848;-3.572;2023-05-08T05:34:55;99065.93;;;8.00;100.00
54554;BME280;40450;55.848;-3.572;2023-05-08T05:37:25;99071.98;;;8.27;99.60
54554;BME280;40450;55.848;-3.572;2023-05-08T05:39:55;99069.65;;;8.43;99.47
54554;BME280;40450;55.848;-3.572;2023-05-08T05:42:25;99063.55;;;8.64;99.13
54554;BME280;40450;55.848;-3.572;2023-05-08T05:44:56;99070.78;;;8.77;98.87
54554;BME280;40450;55.848;-3.572;2023-05-08T05:47:26;99075.71;;;8.94;98.47
54554;BME280;40450;55.848;-3.572;2023-05-08T05:49:56;99075.84;;;9.43;97.39
54554;BME280;40450;55.848;-3.572;2023-05-08T05:52:26;99075.54;;;8.99;98.13
54554;BME280;40450;55.848;-3.572;2023-05-08T05:54:57;99078.13;;;8.63;99.28
54554;BME280;40450;55.848;-3.572;2023-05-08T05:57:27;99072.35;;;9.35;97.91
54554;BME280;40450;55.848;-3.572;2023-05-08T05:59:58;99072.48;;;8.48;99.27
54554;BME280;40450;55.848;-3.572;2023-05-08T06:02:28;99066.69;;;8.44;99.54
54554;BME280;40450;55.848;-3.572;2023-05-08T06:04:58;99060.45;;;8.52;99.50
54554;BME280;40450;55.848;-3.572;2023-05-08T06:07:29;99057.86;;;8.63;99.35
54554;BME280;40450;55.848;-3.572;2023-05-08T06:09:59;99048.64;;;8.61;99.47
54554;BME280;40450;55.848;-3.572;2023-05-08T06:12:29;99050.01;;;7.96;100.00
54554;BME280;40450;55.848;-3.572;2023-05-08T06:15:00;99062.06;;;8.41;100.00
54554;BME280;40450;55.848;-3.572;2023-05-08T06:17:30;99062.71;;;8.32;100.00
54554;BME280;40450;55.848;-3.572;2023-05-08T06:20:00;99061.09;;;9.02;99.48
54554;BME280;40450;55.848;-3.572;2023-05-08T06:22:31;99059.43;;;8.79;99.56
54554;BME280;40450;55.848;-3.572;2023-05-08T06:25:01;99054.51;;;8.28;100.00
54554;BME280;40450;55.848;-3.572;2023-05-08T06:27:32;99049.16;;;8.29;100.00
54554;BME280;40450;55.848;-3.572;2023-05-08T06:30:03;99046.91;;;8.07;100.00
54554;BME280;40450;55.848;-3.572;2023-05-08T06:32:32;99051.82;;;7.72;100.00
54554;BME280;40450;55.848;-3.572;2023-05-08T06:35:03;99047.90;;;7.79;100.00
54554;BME280;40450;55.848;-3.572;2023-05-08T06:37:34;99051.07;;;7.88;100.00
54554;BME280;40450;55.848;-3.572;2023-05-08T06:40:04;99039.58;;;7.93;100.00
54554;BME280;40450;55.848;-3.572;2023-05-08T06:42:34;99039.73;;;7.98;100.00
54554;BME280;40450;55.848;-3.572;2023-05-08T06:45:05;99039.08;;;7.91;100.00
54554;BME280;40450;55.848;-3.572;2023-05-08T06:47:34;99036.83;;;7.61;100.00
54554;BME280;40450;55.848;-3.572;2023-05-08T06:50:06;99034.87;;;7.97;100.00
54554;BME280;40450;55.848;-3.572;2023-05-08T06:52:35;99025.14;;;8.00;100.00
54554;BME280;40450;55.848;-3.572;2023-05-08T06:55:06;99023.55;;;7.83;100.00
54554;BME280;40450;55.848;-3.572;2023-05-08T06:57:36;99019.64;;;7.66;100.00
54554;BME280;40450;55.848;-3.572;2023-05-08T07:00:07;99017.48;;;7.61;100.00
54554;BME280;40450;55.848;-3.572;2023-05-08T07:02:37;99023.12;;;7.54;100.00
54554;BME280;40450;55.848;-3.572;2023-05-08T07:05:08;99021.90;;;8.33;100.00
54554;BME280;40450;55.848;-3.572;2023-05-08T07:07:37;99024.39;;;9.00;100.00
54554;BME280;40450;55.848;-3.572;2023-05-08T07:10:08;99022.98;;;9.35;100.00
54554;BME280;40450;55.848;-3.572;2023-05-08T07:12:38;99021.09;;;9.04;100.00
54554;BME280;40450;55.848;-3.572;2023-05-08T07:15:09;99017.91;;;9.80;99.85
54554;BME280;40450;55.848;-3.572;2023-05-08T07:17:39;99013.03;;;10.02;99.40
54554;BME280;40450;55.848;-3.572;2023-05-08T07:20:09;99009.62;;;9.22;100.00
54554;BME280;40450;55.848;-3.572;2023-05-08T07:22:39;99005.39;;;8.72;100.00
54554;BME280;40450;55.848;-3.572;2023-05-08T07:25:10;99005.72;;;8.44;100.00
54554;BME280;40450;55.848;-3.572;2023-05-08T07:27:40;99001.25;;;8.42;100.00
54554;BME280;40450;55.848;-3.572;2023-05-08T07:30:11;99005.30;;;8.24;100.00
54554;BME280;40450;55.848;-3.572;2023-05-08T07:32:41;99010.82;;;7.95;100.00
54554;BME280;40450;55.848;-3.572;2023-05-08T07:35:11;99009.42;;;8.33;100.00
54554;BME280;40450;55.848;-3.572;2023-05-08T07:37:41;99001.63;;;7.78;100.00
54554;BME280;40450;55.848;-3.572;2023-05-08T07:40:12;99004.10;;;8.38;100.00
54554;BME280;40450;55.848;-3.572;2023-05-08T07:42:43;99017.62;;;8.31;100.00
54554;BME280;40450;55.848;-3.572;2023-05-08T07:45:13;99010.97;;;7.66;100.00
54554;BME280;40450;55.848;-3.572;2023-05-08T07:47:48;99016.90;;;7.71;100.00
54554;BME280;40450;55.848;-3.572;2023-05-08T07:50:13;99012.79;;;7.77;100.00
54554;BME280;40450;55.848;-3.572;2023-05-08T07:52:44;99016.67;;;7.59;100.00
54554;BME280;40450;55.848;-3.572;2023-05-08T07:55:14;99019.43;;;7.49;100.00
54554;BME280;40450;55.848;-3.572;2023-05-08T07:57:44;99008.20;;;7.73;100.00
54554;BME280;40450;55.848;-3.572;2023-05-08T08:00:16;99014.80;;;8.22;100.00
54554;BME280;40450;55.848;-3.572;2023-05-08T08:02:45;99021.78;;;7.55;100.00
54554;BME280;40450;55.848;-3.572;2023-05-08T08:05:15;99013.81;;;7.67;100.00
54554;BME280;40450;55.848;-3.572;2023-05-08T08:07:46;99012.90;;;8.36;100.00
54554;BME280;40450;55.848;-3.572;2023-05-08T08:10:16;99013.25;;;8.72;100.00
54554;BME280;40450;55.848;-3.572;2023-05-08T08:12:46;99011.37;;;8.34;100.00
54554;BME280;40450;55.848;-3.572;2023-05-08T08:15:17;99008.59;;;8.61;100.00
54554;BME280;40450;55.848;-3.572;2023-05-08T08:17:47;99006.36;;;8.29;100.00
54554;BME280;40450;55.848;-3.572;2023-05-08T08:20:17;99006.00;;;8.67;100.00
54554;BME280;40450;55.848;-3.572;2023-05-08T08:22:48;99006.61;;;8.82;100.00
54554;BME280;40450;55.848;-3.572;2023-05-08T08:25:18;99002.33;;;8.73;100.00
54554;BME280;40450;55.848;-3.572;2023-05-08T08:27:49;98998.18;;;8.55;100.00
54554;BME280;40450;55.848;-3.572;2023-05-08T08:30:19;98993.66;;;8.33;100.00
54554;BME280;40450;55.848;-3.572;2023-05-08T08:32:49;98989.77;;;8.01;100.00
54554;BME280;40450;55.848;-3.572;2023-05-08T08:35:20;98988.83;;;8.18;100.00
54554;BME280;40450;55.848;-3.572;2023-05-08T08:37:50;98989.90;;;7.74;100.00
54554;BME280;40450;55.848;-3.572;2023-05-08T08:40:20;98976.21;;;8.19;100.00
54554;BME280;40450;55.848;-3.572;2023-05-08T08:42:51;98971.48;;;7.77;100.00
54554;BME280;40450;55.848;-3.572;2023-05-08T08:45:21;98955.93;;;8.07;100.00
54554;BME280;40450;55.848;-3.572;2023-05-08T08:47:52;98938.14;;;7.94;100.00
54554;BME280;40450;55.848;-3.572;2023-05-08T08:50:22;98918.06;;;7.80;100.00
54554;BME280;40450;55.848;-3.572;2023-05-08T08:52:58;98917.01;;;8.36;100.00
54554;BME280;40450;55.848;-3.572;2023-05-08T08:55:23;98909.45;;;8.23;100.00
54554;BME280;40450;55.848;-3.572;2023-05-08T08:58:02;98884.40;;;8.11;100.00
54554;BME280;40450;55.848;-3.572;2023-05-08T09:00:27;98872.81;;;8.21;100.00
54554;BME280;40450;55.848;-3.572;2023-05-08T09:02:54;98894.77;;;8.09;100.00
54554;BME280;40450;55.848;-3.572;2023-05-08T09:05:24;98894.02;;;7.69;100.00
54554;BME280;40450;55.848;-3.572;2023-05-08T09:07:54;98890.79;;;7.89;100.00
54554;BME280;40450;55.848;-3.572;2023-05-08T09:10:24;98906.26;;;7.98;100.00
54554;BME280;40450;55.848;-3.572;2023-05-08T09:12:55;98926.03;;;7.67;100.00
54554;BME280;40450;55.848;-3.572;2023-05-08T09:15:25;98941.91;;;7.95;100.00
54554;BME280;40450;55.848;-3.572;2023-05-08T09:17:55;98963.14;;;7.99;100.00
54554;BME280;40450;55.848;-3.572;2023-05-08T09:20:26;98973.72;;;8.15;100.00
54554;BME280;40450;55.848;-3.572;2023-05-08T09:22:58;98973.91;;;8.78;100.00
54554;BME280;40450;55.848;-3.572;2023-05-08T09:30:27;98999.43;;;8.13;100.00
54554;BME280;40450;55.848;-3.572;2023-05-08T09:33:01;99001.99;;;8.80;100.00
54554;BME280;40450;55.848;-3.572;2023-05-08T09:35:34;98993.71;;;9.24;100.00
54554;BME280;40450;55.848;-3.572;2023-05-08T09:37:58;98987.07;;;9.35;100.00
54554;BME280;40450;55.848;-3.572;2023-05-08T09:40:28;98989.25;;;9.84;100.00
54554;BME280;40450;55.848;-3.572;2023-05-08T09:45:30;98993.83;;;8.62;100.00
54554;BME280;40450;55.848;-3.572;2023-05-08T09:47:59;98990.21;;;9.29;100.00
54554;BME280;40450;55.848;-3.572;2023-05-08T09:50:30;98984.10;;;8.80;100.00
54554;BME280;40450;55.848;-3.572;2023-05-08T09:53:00;98978.97;;;9.49;100.00
54554;BME280;40450;55.848;-3.572;2023-05-08T09:58:01;98930.61;;;9.46;100.00
54554;BME280;40450;55.848;-3.572;2023-05-08T10:00:37;98914.03;;;9.27;100.00
54554;BME280;40450;55.848;-3.572;2023-05-08T10:03:02;98903.95;;;9.33;100.00
54554;BME280;40450;55.848;-3.572;2023-05-08T10:05:33;98919.90;;;9.54;100.00
54554;BME280;40450;55.848;-3.572;2023-05-08T10:10:32;98966.74;;;10.10;100.00
54554;BME280;40450;55.848;-3.572;2023-05-08T10:13:03;98969.56;;;10.27;100.00
54554;BME280;40450;55.848;-3.572;2023-05-08T10:15:35;98972.87;;;10.03;100.00
54554;BME280;40450;55.848;-3.572;2023-05-08T10:18:05;98976.20;;;9.68;100.00
54554;BME280;40450;55.848;-3.572;2023-05-08T10:20:36;98974.30;;;9.00;100.00
54554;BME280;40450;55.848;-3.572;2023-05-08T10:23:07;98979.73;;;9.16;100.00
54554;BME280;40450;55.848;-3.572;2023-05-08T10:25:35;98981.83;;;8.99;100.00
54554;BME280;40450;55.848;-3.572;2023-05-08T10:28:12;98976.74;;;9.83;100.00
54554;BME280;40450;55.848;-3.572;2023-05-08T10:30:37;98971.62;;;10.56;100.00
54554;BME280;40450;55.848;-3.572;2023-05-08T10:33:09;98980.80;;;9.94;100.00
54554;BME280;40450;55.848;-3.572;2023-05-08T10:35:36;98973.33;;;9.41;100.00
54554;BME280;40450;55.848;-3.572;2023-05-08T10:38:07;98967.81;;;10.31;100.00
54554;BME280;40450;55.848;-3.572;2023-05-08T10:40:37;98966.33;;;10.61;100.00
54554;BME280;40450;55.848;-3.572;2023-05-08T10:43:08;98967.27;;;10.34;100.00
54554;BME280;40450;55.848;-3.572;2023-05-08T10:45:38;98965.01;;;10.19;100.00
54554;BME280;40450;55.848;-3.572;2023-05-08T10:48:16;98966.52;;;10.56;100.00
54554;BME280;40450;55.848;-3.572;2023-05-08T10:50:46;98964.74;;;10.47;100.00
54554;BME280;40450;55.848;-3.572;2023-05-08T10:53:12;98966.96;;;10.43;100.00
54554;BME280;40450;55.848;-3.572;2023-05-08T10:55:40;98967.41;;;11.15;99.61
54554;BME280;40450;55.848;-3.572;2023-05-08T10:58:10;98966.30;;;11.58;98.49
54554;BME280;40450;55.848;-3.572;2023-05-08T11:03:10;98971.69;;;10.14;100.00
54554;BME280;40450;55.848;-3.572;2023-05-08T11:05:45;98974.63;;;9.82;100.00
54554;BME280;40450;55.848;-3.572;2023-05-08T11:08:14;98980.07;;;9.68;100.00
54554;BME280;40450;55.848;-3.572;2023-05-08T11:10:41;98979.90;;;9.40;100.00
54554;BME280;40450;55.848;-3.572;2023-05-08T11:13:11;98980.46;;;9.85;100.00
54554;BME280;40450;55.848;-3.572;2023-05-08T11:15:48;98978.67;;;10.60;100.00
54554;BME280;40450;55.848;-3.572;2023-05-08T11:18:15;98983.55;;;10.17;100.00
54554;BME280;40450;55.848;-3.572;2023-05-08T11:23:20;98978.84;;;10.74;100.00
54554;BME280;40450;55.848;-3.572;2023-05-08T11:25:43;98979.57;;;11.42;99.93
54554;BME280;40450;55.848;-3.572;2023-05-08T11:28:15;98982.01;;;11.62;99.56
54554;BME280;40450;55.848;-3.572;2023-05-08T11:30:43;98980.88;;;11.52;99.40
54554;BME280;40450;55.848;-3.572;2023-05-08T11:33:16;98985.67;;;11.56;99.27
54554;BME280;40450;55.848;-3.572;2023-05-08T11:35:50;98984.69;;;12.31;98.09
54554;BME280;40450;55.848;-3.572;2023-05-08T11:38:17;98986.95;;;12.24;97.88
54554;BME280;40450;55.848;-3.572;2023-05-08T11:40:46;98988.67;;;11.82;98.38
54554;BME280;40450;55.848;-3.572;2023-05-08T11:45:45;98992.49;;;12.46;97.28
54554;BME280;40450;55.848;-3.572;2023-05-08T11:48:15;98987.76;;;12.66;96.57
54554;BME280;40450;55.848;-3.572;2023-05-08T11:50:46;98984.92;;;12.86;96.41
54554;BME280;40450;55.848;-3.572;2023-05-08T11:53:16;98986.39;;;11.43;98.29
54554;BME280;40450;55.848;-3.572;2023-05-08T11:55:47;98982.50;;;11.21;99.15
54554;BME280;40450;55.848;-3.572;2023-05-08T11:58:17;98987.14;;;11.18;100.00
54554;BME280;40450;55.848;-3.572;2023-05-08T12:00:48;98987.32;;;11.01;100.00
54554;BME280;40450;55.848;-3.572;2023-05-08T12:03:19;98986.56;;;10.80;100.00
54554;BME280;40450;55.848;-3.572;2023-05-08T12:05:49;98984.74;;;12.31;99.37
54554;BME280;40450;55.848;-3.572;2023-05-08T12:08:18;98982.65;;;11.91;99.16
54554;BME280;40450;55.848;-3.572;2023-05-08T12:10:49;98983.59;;;12.33;98.51
54554;BME280;40450;55.848;-3.572;2023-05-08T12:13:20;98985.22;;;12.12;99.41
54554;BME280;40450;55.848;-3.572;2023-05-08T12:15:50;98985.05;;;12.52;98.67
54554;BME280;40450;55.848;-3.572;2023-05-08T12:18:20;98983.81;;;12.95;97.78
54554;BME280;40450;55.848;-3.572;2023-05-08T12:20:51;98981.40;;;12.96;97.45
54554;BME280;40450;55.848;-3.572;2023-05-08T12:23:20;98980.66;;;12.16;97.87
54554;BME280;40450;55.848;-3.572;2023-05-08T12:25:51;98981.82;;;12.54;97.90
54554;BME280;40450;55.848;-3.572;2023-05-08T12:28:21;98980.98;;;12.18;97.89
54554;BME280;40450;55.848;-3.572;2023-05-08T12:30:51;98975.77;;;12.76;97.48
54554;BME280;40450;55.848;-3.572;2023-05-08T12:33:21;98976.13;;;13.34;95.48
54554;BME280;40450;55.848;-3.572;2023-05-08T12:35:52;98983.95;;;12.39;96.70
54554;BME280;40450;55.848;-3.572;2023-05-08T12:38:25;98981.83;;;12.66;97.43
54554;BME280;40450;55.848;-3.572;2023-05-08T12:40:53;98985.73;;;12.84;96.54
54554;BME280;40450;55.848;-3.572;2023-05-08T12:43:31;98978.04;;;13.44;96.25
54554;BME280;40450;55.848;-3.572;2023-05-08T12:45:53;98980.71;;;11.98;97.68
54554;BME280;40450;55.848;-3.572;2023-05-08T12:48:23;98980.35;;;12.24;97.87
54554;BME280;40450;55.848;-3.572;2023-05-08T12:50:53;98977.02;;;12.77;97.06
54554;BME280;40450;55.848;-3.572;2023-05-08T12:53:24;98981.64;;;13.09;96.26
54554;BME280;40450;55.848;-3.572;2023-05-08T12:55:55;98976.69;;;13.11;95.61
54554;BME280;40450;55.848;-3.572;2023-05-08T12:58:26;98970.39;;;13.87;94.48
54554;BME280;40450;55.848;-3.572;2023-05-08T13:01:04;98968.30;;;13.21;95.22
54554;BME280;40450;55.848;-3.572;2023-05-08T13:03:27;98969.04;;;12.75;96.58
54554;BME280;40450;55.848;-3.572;2023-05-08T13:05:57;98968.04;;;13.76;96.28
54554;BME280;40450;55.848;-3.572;2023-05-08T13:08:30;98967.76;;;13.65;95.40
54554;BME280;40450;55.848;-3.572;2023-05-08T13:10:56;98966.72;;;14.42;94.72
54554;BME280;40450;55.848;-3.572;2023-05-08T13:13:29;98962.55;;;14.69;93.09
54554;BME280;40450;55.848;-3.572;2023-05-08T13:15:57;98962.79;;;13.19;95.21
54554;BME280;40450;55.848;-3.572;2023-05-08T13:18:27;98960.63;;;13.80;95.36
54554;BME280;40450;55.848;-3.572;2023-05-08T13:20:57;98963.50;;;14.51;92.90
54554;BME280;40450;55.848;-3.572;2023-05-08T13:23:28;98961.39;;;14.19;92.61
54554;BME280;40450;55.848;-3.572;2023-05-08T13:25:58;98957.41;;;14.20;92.88
54554;BME280;40450;55.848;-3.572;2023-05-08T13:28:28;98956.46;;;14.17;93.86
54554;BME280;40450;55.848;-3.572;2023-05-08T13:30:58;98957.68;;;13.77;93.94
54554;BME280;40450;55.848;-3.572;2023-05-08T13:33:29;98957.78;;;13.57;95.09